Time;durP1;ratioP1;P1;durP2;ratioP2;P2;SDS_P1;SDS_P2;PMS_P1;PMS_P2;Temp;Humidity;BMP_temperature;BMP_pressure;BME280_temperature;BME280_humidity;BME280_pressure;Samples;Min_cycle;Max_cycle;Signal;HPM_P1;HPM_P2
2023/01/18 00:01:04;;;;;;;13.50;9.40;;;3.70;99.90;;;;;;4836847;29;20046;-79
2023/01/18 00:03:34;;;;;;;14.45;10.27;;;3.60;99.90;;;;;;4819644;29;20051;-79
2023/01/18 00:06:02;;;;;;;16.45;10.82;;;3.60;99.90;;;;;;4804393;29;20047;-78
2023/01/18 00:08:30;;;;;;;16.25;12.32;;;3.60;99.90;;;;;;4819172;29;20424;-79
2023/01/18 00:11:08;;;;;;;17.40;11.65;;;3.50;99.90;;;;;;4803912;29;20389;-80
2023/01/18 00:13:35;;;;;;;19.08;11.95;;;3.60;99.90;;;;;;4804924;29;20051;-80
2023/01/18 00:16:17;;;;;;;12.50;8.93;;;3.60;99.90;;;;;;4804310;29;20381;-78
2023/01/18 00:18:50;;;;;;;10.95;7.32;;;3.60;99.90;;;;;;4823618;29;20079;-79
2023/01/18 00:21:17;;;;;;;11.18;8.38;;;3.60;99.90;;;;;;4839827;29;20102;-79
2023/01/18 00:23:44;;;;;;;10.52;7.65;;;3.30;99.90;;;;;;4840343;29;20106;-79
2023/01/18 00:26:13;;;;;;;9.43;7.13;;;3.60;99.90;;;;;;4824949;29;20088;-79
2023/01/18 00:28:41;;;;;;;9.23;6.00;;;3.60;99.90;;;;;;4840456;29;20491;-79
2023/01/18 00:31:19;;;;;;;10.93;8.68;;;3.60;99.90;;;;;;4837271;29;20093;-79
2023/01/18 00:33:48;;;;;;;11.93;9.85;;;3.60;99.90;;;;;;4807015;29;20050;-79
2023/01/18 00:36:15;;;;;;;11.93;9.68;;;3.60;99.90;;;;;;4821339;29;20049;-78
2023/01/18 00:38:42;;;;;;;11.15;8.25;;;3.60;99.90;;;;;;4806556;29;20552;-78
2023/01/18 00:41:09;;;;;;;11.07;7.90;;;3.60;99.90;;;;;;4826932;29;20042;-78
2023/01/18 00:43:39;;;;;;;12.43;7.00;;;3.60;99.90;;;;;;4824968;29;20049;-79
2023/01/18 00:46:15;;;;;;;11.20;7.57;;;3.60;99.90;;;;;;4839818;29;20069;-79
2023/01/18 00:48:43;;;;;;;10.07;6.90;;;3.60;99.90;;;;;;4824726;29;20053;-78
2023/01/18 00:51:16;;;;;;;10.88;7.32;;;4.30;99.90;;;;;;4839175;29;20053;-78
2023/01/18 00:53:43;;;;;;;11.50;7.60;;;3.60;99.90;;;;;;4824655;29;20149;-79
2023/01/18 00:56:14;;;;;;;11.65;7.50;;;3.70;99.90;;;;;;4824452;29;20062;-79
2023/01/18 00:58:41;;;;;;;12.90;7.50;;;3.50;99.90;;;;;;4824369;29;20046;-79
2023/01/18 01:01:08;;;;;;;9.75;7.15;;;3.50;99.90;;;;;;4822418;29;20073;-79
2023/01/18 01:06:43;;;;;;;12.07;7.60;;;3.40;99.90;;;;;;4822343;29;20070;-79
2023/01/18 01:09:11;;;;;;;11.23;7.50;;;3.30;99.90;;;;;;4822189;29;20680;-79
2023/01/18 01:11:37;;;;;;;12.93;8.02;;;3.20;99.90;;;;;;4845453;29;20151;-78
2023/01/18 01:27:51;;;;;;;14.10;8.52;;;3.20;99.90;;;;;;4838946;29;20086;-78
2023/01/18 01:30:18;;;;;;;11.15;7.68;;;3.20;99.90;;;;;;4837238;29;20057;-78
2023/01/18 01:32:44;;;;;;;11.65;7.78;;;3.20;99.90;;;;;;4824065;29;20058;-79
2023/01/18 01:35:11;;;;;;;12.93;8.20;;;3.50;99.90;;;;;;4821052;29;20076;-79
2023/01/18 01:37:38;;;;;;;12.40;7.90;;;3.40;99.90;;;;;;4836033;29;20058;-79
2023/01/18 01:40:05;;;;;;;11.23;7.35;;;3.30;99.90;;;;;;4819329;29;20058;-78
2023/01/18 01:42:32;;;;;;;12.60;7.88;;;3.20;99.90;;;;;;4835303;29;20053;-79
2023/01/18 01:44:59;;;;;;;9.90;7.63;;;3.20;99.90;;;;;;4820662;29;20054;-79
2023/01/18 01:47:32;;;;;;;10.68;7.50;;;3.20;99.90;;;;;;4835145;29;20060;-80
2023/01/18 01:50:24;;;;;;;11.52;7.80;;;3.20;99.90;;;;;;4819701;29;20062;-79
2023/01/18 01:52:51;;;;;;;12.48;8.48;;;3.20;99.90;;;;;;4819235;29;20089;-79
2023/01/18 01:55:23;;;;;;;11.23;8.48;;;3.10;99.90;;;;;;4834941;29;20125;-79
2023/01/18 01:58:11;;;;;;;10.90;8.02;;;3.20;99.90;;;;;;4835733;29;20085;-79
2023/01/18 02:00:38;;;;;;;10.95;7.60;;;3.20;99.90;;;;;;4819358;29;20054;-79
2023/01/18 02:03:08;;;;;;;12.90;8.52;;;3.40;99.90;;;;;;4819880;29;20141;-79
2023/01/18 02:05:47;;;;;;;11.05;7.82;;;4.70;99.90;;;;;;4820373;29;20054;-78
2023/01/18 02:08:21;;;;;;;15.98;8.98;;;3.40;99.90;;;;;;4820013;29;20054;-79
2023/01/18 02:10:48;;;;;;;12.07;8.73;;;3.40;99.90;;;;;;4833984;29;20490;-78
2023/01/18 02:13:15;;;;;;;14.02;9.05;;;3.30;99.90;;;;;;4820243;29;20077;-79
2023/01/18 02:16:04;;;;;;;14.82;9.27;;;3.30;99.90;;;;;;4818718;29;20463;-79
2023/01/18 02:18:48;;;;;;;11.73;8.05;;;3.20;99.90;;;;;;4821330;29;20440;-79
2023/01/18 02:21:17;;;;;;;12.38;7.88;;;3.20;99.90;;;;;;4820066;29;20151;-79
2023/01/18 02:24:25;;;;;;;11.98;7.85;;;3.40;99.90;;;;;;4823251;29;20115;-78
2023/01/18 02:27:03;;;;;;;11.07;7.75;;;3.30;99.90;;;;;;4835351;29;20069;-79
2023/01/18 02:29:37;;;;;;;11.30;8.70;;;3.30;99.90;;;;;;4822954;29;20050;-79
2023/01/18 02:32:43;;;;;;;13.48;9.20;;;3.20;99.90;;;;;;4813447;29;20123;-78
2023/01/18 02:35:13;;;;;;;16.42;8.93;;;3.30;99.90;;;;;;4818097;29;20062;-80
2023/01/18 02:37:58;;;;;;;10.90;8.50;;;3.40;99.90;;;;;;4834918;29;20050;-79
2023/01/18 02:40:33;;;;;;;13.90;8.85;;;3.30;99.90;;;;;;4834214;29;20042;-79
2023/01/18 02:48:39;;;;;;;13.90;8.15;;;3.10;99.90;;;;;;4825438;29;20507;-79
2023/01/18 02:51:06;;;;;;;11.48;8.50;;;3.10;99.90;;;;;;4837896;29;20062;-79
2023/01/18 02:53:39;;;;;;;12.55;8.20;;;3.10;99.90;;;;;;4838048;29;20152;-79
2023/01/18 02:56:13;;;;;;;13.05;8.43;;;3.10;99.90;;;;;;4822651;29;20054;-79
2023/01/18 02:58:44;;;;;;;11.65;8.80;;;3.10;99.90;;;;;;4822827;29;20418;-79
2023/01/18 03:01:14;;;;;;;13.75;9.05;;;3.20;99.90;;;;;;4820476;29;20053;-79
2023/01/18 03:03:43;;;;;;;8.38;7.38;;;3.10;99.90;;;;;;4834887;29;20046;-79
2023/01/18 03:06:09;;;;;;;11.60;8.27;;;3.20;99.90;;;;;;4820898;29;20118;-79
2023/01/18 03:08:40;;;;;;;14.35;8.93;;;3.20;99.90;;;;;;4837779;29;20427;-79
2023/01/18 03:11:17;;;;;;;12.93;8.93;;;3.30;99.90;;;;;;4837440;29;20103;-80
2023/01/18 03:14:26;;;;;;;10.93;8.02;;;3.30;99.90;;;;;;4839111;29;20049;-79
2023/01/18 03:17:18;;;;;;;11.55;8.63;;;3.20;99.90;;;;;;4827228;29;20077;-79
2023/01/18 03:20:06;;;;;;;12.45;7.75;;;3.30;99.90;;;;;;4839191;29;20573;-79
2023/01/18 03:25:33;;;;;;;15.38;8.00;;;3.40;99.90;;;;;;4838359;29;20048;-79
2023/01/18 03:33:57;;;;;;;14.40;8.48;;;3.30;99.90;;;;;;4835585;29;20069;-78
2023/01/18 03:36:31;;;;;;;9.07;7.10;;;3.20;99.90;;;;;;4837671;29;20046;-79
2023/01/18 03:39:10;;;;;;;9.43;7.50;;;3.30;99.90;;;;;;4822769;29;20095;-78
2023/01/18 03:41:41;;;;;;;13.30;8.50;;;3.30;99.90;;;;;;4822449;29;20099;-79
2023/01/18 03:44:17;;;;;;;10.48;7.68;;;3.30;99.90;;;;;;4822756;29;20054;-78
2023/01/18 03:46:44;;;;;;;10.40;7.90;;;3.40;99.90;;;;;;4822261;29;20058;-79
2023/01/18 03:49:11;;;;;;;10.70;7.35;;;3.30;99.90;;;;;;4837261;29;20046;-78
2023/01/18 03:52:06;;;;;;;13.10;8.35;;;3.30;99.90;;;;;;4821156;29;20078;-79
2023/01/18 03:54:55;;;;;;;11.73;8.50;;;3.30;99.90;;;;;;4818906;29;20086;-79
2023/01/18 03:57:37;;;;;;;9.80;7.30;;;3.30;99.90;;;;;;4805834;29;20601;-79
2023/01/18 04:00:07;;;;;;;9.43;7.30;;;3.40;99.90;;;;;;4804366;29;20057;-80
2023/01/18 04:02:38;;;;;;;13.32;8.10;;;3.40;99.90;;;;;;4818611;29;20108;-79
2023/01/18 04:05:05;;;;;;;12.43;7.75;;;3.40;99.90;;;;;;4837540;29;20070;-79
2023/01/18 04:07:32;;;;;;;11.68;8.13;;;3.30;99.90;;;;;;4821176;29;20070;-79
2023/01/18 04:09:59;;;;;;;12.50;8.20;;;3.30;99.90;;;;;;4836264;29;20046;-79
2023/01/18 04:12:26;;;;;;;13.48;8.65;;;3.30;99.90;;;;;;4836303;29;20083;-79
2023/01/18 04:14:56;;;;;;;14.18;8.95;;;3.30;99.90;;;;;;4836476;29;20126;-79
2023/01/18 04:17:22;;;;;;;14.10;9.82;;;3.20;99.90;;;;;;4821433;29;20046;-78
2023/01/18 04:19:49;;;;;;;16.98;10.88;;;3.40;99.90;;;;;;4822224;29;20050;-80
2023/01/18 04:22:16;;;;;;;16.10;11.65;;;3.30;99.90;;;;;;4836903;29;20054;-79
2023/01/18 04:24:43;;;;;;;17.20;11.32;;;3.40;99.90;;;;;;4821700;29;20099;-79
2023/01/18 04:27:10;;;;;;;22.45;13.27;;;3.30;99.90;;;;;;4821918;29;20054;-78
2023/01/18 04:29:37;;;;;;;21.77;12.88;;;3.40;99.90;;;;;;4837213;29;20050;-78
2023/01/18 04:32:04;;;;;;;23.52;14.35;;;3.30;99.90;;;;;;4837635;29;20048;-79
2023/01/18 04:34:32;;;;;;;28.67;15.35;;;3.40;99.90;;;;;;4840473;29;20046;-78
2023/01/18 04:36:58;;;;;;;20.23;12.88;;;3.90;99.90;;;;;;4841440;29;20046;-79
2023/01/18 04:39:25;;;;;;;16.08;10.20;;;4.70;99.90;;;;;;4824153;29;20046;-78
2023/01/18 04:41:52;;;;;;;13.27;8.82;;;4.30;99.90;;;;;;4825568;29;20069;-79
2023/01/18 04:44:20;;;;;;;14.18;9.00;;;3.80;99.90;;;;;;4840487;29;20058;-79
2023/01/18 04:46:47;;;;;;;17.33;12.40;;;3.20;99.90;;;;;;4824922;29;20050;-79
2023/01/18 04:49:16;;;;;;;15.10;10.02;;;3.20;99.90;;;;;;4840416;29;20476;-79
2023/01/18 04:51:44;;;;;;;13.48;9.80;;;3.30;99.90;;;;;;4839539;29;20069;-78
2023/01/18 04:54:13;;;;;;;11.52;8.27;;;3.20;99.90;;;;;;4840628;29;20056;-78
2023/01/18 04:56:40;;;;;;;13.63;10.20;;;3.20;99.90;;;;;;4840164;29;20569;-78
2023/01/18 04:59:06;;;;;;;20.02;10.68;;;3.00;99.90;;;;;;4840054;29;20870;-80
2023/01/18 05:01:34;;;;;;;12.48;8.65;;;3.00;99.90;;;;;;4820943;29;20045;-80
2023/01/18 05:04:02;;;;;;;12.48;8.90;;;3.10;99.90;;;;;;4839473;29;20640;-79
2023/01/18 05:06:29;;;;;;;11.77;7.47;;;3.10;99.90;;;;;;4840263;29;20072;-79
2023/01/18 05:08:55;;;;;;;9.13;6.75;;;3.10;99.90;;;;;;4839328;29;20049;-79
2023/01/18 05:11:22;;;;;;;10.55;7.55;;;3.10;99.90;;;;;;4839092;29;20050;-79
2023/01/18 05:13:49;;;;;;;10.35;7.03;;;3.30;99.90;;;;;;4814445;29;20081;-79
2023/01/18 05:16:21;;;;;;;10.45;7.32;;;3.10;99.90;;;;;;4819934;29;20133;-79
2023/01/18 05:18:48;;;;;;;10.77;6.97;;;3.20;99.90;;;;;;4820171;29;20603;-79
2023/01/18 05:21:16;;;;;;;8.77;7.78;;;3.20;99.90;;;;;;4834779;29;20718;-79
2023/01/18 05:23:42;;;;;;;10.10;6.93;;;3.20;99.90;;;;;;4822182;29;20412;-79
2023/01/18 05:26:16;;;;;;;6.32;5.63;;;3.10;99.90;;;;;;4822227;29;20053;-79
2023/01/18 05:28:43;;;;;;;7.80;5.43;;;3.20;99.90;;;;;;4821766;29;20058;-79
2023/01/18 05:31:10;;;;;;;7.75;5.82;;;3.20;99.90;;;;;;4833754;29;20141;-80
2023/01/18 05:33:37;;;;;;;8.73;6.10;;;3.10;99.90;;;;;;4803552;29;20078;-79
2023/01/18 05:36:04;;;;;;;11.80;7.85;;;4.60;99.90;;;;;;4803813;29;20096;-83
2023/01/18 05:38:31;;;;;;;10.68;6.30;;;3.10;99.90;;;;;;4803903;29;20058;-79
2023/01/18 05:40:58;;;;;;;10.93;6.97;;;3.00;99.90;;;;;;4809008;29;20050;-82
2023/01/18 05:43:26;;;;;;;9.98;6.70;;;4.30;99.90;;;;;;4839968;29;20425;-79
2023/01/18 05:45:53;;;;;;;11.43;7.50;;;3.00;99.90;;;;;;4834885;29;20058;-79
2023/01/18 05:48:20;;;;;;;11.10;6.75;;;3.10;99.90;;;;;;4805951;29;20118;-79
2023/01/18 05:50:47;;;;;;;11.10;7.68;;;3.00;99.90;;;;;;4802673;29;20552;-81
2023/01/18 05:53:19;;;;;;;10.90;6.38;;;3.10;99.90;;;;;;4831232;29;20065;-81
2023/01/18 05:55:57;;;;;;;7.55;5.97;;;3.00;99.90;;;;;;4800777;29;20050;-80
2023/01/18 05:58:24;;;;;;;9.77;6.07;;;3.00;99.90;;;;;;4795495;29;20073;-79
2023/01/18 06:00:51;;;;;;;9.20;6.43;;;2.90;99.90;;;;;;4799371;29;20061;-81
2023/01/18 06:03:19;;;;;;;11.30;6.45;;;2.90;99.90;;;;;;4801467;29;20059;-81
2023/01/18 06:05:47;;;;;;;8.60;6.82;;;2.90;99.90;;;;;;4819775;29;20057;-81
2023/01/18 06:08:14;;;;;;;7.57;6.00;;;3.00;99.90;;;;;;4819319;29;20538;-81
2023/01/18 06:10:41;;;;;;;10.68;6.88;;;3.00;99.90;;;;;;4805269;29;20058;-83
2023/01/18 06:13:08;;;;;;;7.85;6.75;;;3.00;99.90;;;;;;4821588;29;20061;-81
2023/01/18 06:15:35;;;;;;;10.75;6.65;;;2.90;99.90;;;;;;4824057;29;20045;-81
2023/01/18 06:18:02;;;;;;;7.88;6.72;;;2.90;99.90;;;;;;4839722;29;20110;-80
2023/01/18 06:20:29;;;;;;;9.48;6.25;;;2.90;99.90;;;;;;4818434;29;20046;-81
2023/01/18 06:22:57;;;;;;;10.18;7.00;;;3.00;99.90;;;;;;4806712;29;20078;-81
2023/01/18 06:25:24;;;;;;;9.40;6.90;;;2.90;99.90;;;;;;4803165;29;20057;-82
2023/01/18 06:27:51;;;;;;;11.35;7.60;;;2.90;99.90;;;;;;4818821;29;20057;-82
2023/01/18 06:30:18;;;;;;;12.75;7.65;;;2.90;99.90;;;;;;4821637;29;20054;-81
2023/01/18 06:32:47;;;;;;;10.77;9.25;;;2.80;99.90;;;;;;4807816;29;20090;-81
2023/01/18 06:35:14;;;;;;;13.57;8.70;;;2.90;99.90;;;;;;4803532;29;20081;-83
2023/01/18 06:37:41;;;;;;;12.35;9.38;;;3.80;99.90;;;;;;4803148;29;20058;-80
2023/01/18 06:40:08;;;;;;;10.45;8.90;;;2.80;99.90;;;;;;4824299;29;20053;-81
2023/01/18 06:42:35;;;;;;;13.60;8.73;;;2.90;99.90;;;;;;4833719;29;20464;-82
2023/01/18 06:45:02;;;;;;;12.32;9.18;;;2.80;99.90;;;;;;4826527;29;20042;-82
2023/01/18 06:47:29;;;;;;;12.80;10.00;;;2.80;99.90;;;;;;4841325;29;20068;-81
2023/01/18 06:49:55;;;;;;;16.00;10.23;;;2.80;99.90;;;;;;4827366;29;20563;-83
2023/01/18 06:52:22;;;;;;;12.88;10.30;;;2.80;99.90;;;;;;4803381;29;20072;-80
2023/01/18 06:54:49;;;;;;;14.75;11.25;;;2.80;99.90;;;;;;4800270;29;20058;-81
2023/01/18 06:57:16;;;;;;;16.25;11.20;;;2.80;99.90;;;;;;4815435;29;20100;-80
2023/01/18 06:59:42;;;;;;;15.68;11.02;;;2.80;99.90;;;;;;4800186;29;20059;-81
2023/01/18 07:02:13;;;;;;;16.48;10.43;;;2.90;99.90;;;;;;4812297;29;20043;-80
2023/01/18 07:04:42;;;;;;;12.73;8.25;;;2.80;99.90;;;;;;4822886;29;20054;-80
2023/01/18 07:07:10;;;;;;;10.10;8.60;;;2.70;99.90;;;;;;4822161;29;20058;-80
2023/01/18 07:09:37;;;;;;;15.68;9.07;;;2.70;99.90;;;;;;4821778;29;20073;-82
2023/01/18 07:12:04;;;;;;;10.25;8.25;;;2.80;99.90;;;;;;4821926;29;20092;-80
2023/01/18 07:14:31;;;;;;;12.82;7.90;;;2.70;99.90;;;;;;4821769;29;20175;-80
2023/01/18 07:16:57;;;;;;;14.68;8.20;;;2.80;99.90;;;;;;4807091;29;20107;-80
2023/01/18 07:19:24;;;;;;;9.10;6.82;;;2.80;99.90;;;;;;4806865;29;20058;-80
2023/01/18 07:21:52;;;;;;;10.45;7.63;;;2.70;99.90;;;;;;4821788;29;20058;-80
2023/01/18 07:24:19;;;;;;;11.48;9.07;;;2.70;99.90;;;;;;4806750;29;20054;-80
2023/01/18 07:26:46;;;;;;;13.95;8.88;;;2.60;99.90;;;;;;4806689;29;20054;-79
2023/01/18 07:29:13;;;;;;;11.50;8.15;;;3.50;99.90;;;;;;4805947;29;20050;-79
2023/01/18 07:31:39;;;;;;;12.23;8.32;;;4.60;99.90;;;;;;4808926;29;20049;-79
2023/01/18 07:34:08;;;;;;;11.85;7.22;;;2.70;99.90;;;;;;4823968;29;20575;-79
2023/01/18 07:36:37;;;;;;;14.35;8.07;;;2.60;99.90;;;;;;4823497;29;20552;-79
2023/01/18 07:39:05;;;;;;;8.37;7.07;;;2.60;99.90;;;;;;4820827;29;20050;-79
2023/01/18 07:41:32;;;;;;;10.65;7.38;;;2.70;99.90;;;;;;4805217;29;20394;-79
2023/01/18 07:43:59;;;;;;;13.63;7.75;;;2.60;99.90;;;;;;4805646;29;20095;-79
2023/01/18 07:46:26;;;;;;;9.73;7.85;;;2.50;99.90;;;;;;4820688;29;20046;-79
2023/01/18 07:48:53;;;;;;;9.50;7.07;;;2.70;99.90;;;;;;4805494;29;20428;-80
2023/01/18 07:51:23;;;;;;;11.07;7.63;;;2.80;99.90;;;;;;4805368;29;20070;-79
2023/01/18 07:53:54;;;;;;;11.98;7.72;;;2.70;99.90;;;;;;4806322;29;20508;-79
2023/01/18 07:56:22;;;;;;;11.52;8.95;;;3.60;99.90;;;;;;4820298;29;20166;-79
2023/01/18 07:58:49;;;;;;;13.15;8.48;;;2.60;99.90;;;;;;4820456;29;20070;-79
2023/01/18 08:01:18;;;;;;;13.73;8.30;;;2.70;99.90;;;;;;4820105;29;20065;-80
2023/01/18 08:03:46;;;;;;;9.50;8.50;;;2.70;99.90;;;;;;4820870;29;20519;-79
2023/01/18 08:06:17;;;;;;;13.63;7.88;;;2.70;99.90;;;;;;4820586;29;20059;-79
2023/01/18 08:08:44;;;;;;;9.13;7.82;;;2.70;99.90;;;;;;4820569;29;20054;-80
2023/01/18 08:11:11;;;;;;;12.32;8.73;;;2.80;99.90;;;;;;4819826;29;20149;-79
2023/01/18 08:13:38;;;;;;;10.13;8.65;;;2.80;99.90;;;;;;4827149;29;20078;-79
2023/01/18 08:16:07;;;;;;;9.27;7.97;;;2.70;99.90;;;;;;4819924;29;20133;-79
2023/01/18 08:18:34;;;;;;;10.75;7.32;;;2.60;99.90;;;;;;4820358;29;20050;-80
2023/01/18 08:21:01;;;;;;;11.50;7.15;;;2.70;99.90;;;;;;4820115;29;20508;-79
2023/01/18 08:23:28;;;;;;;11.48;7.68;;;4.90;99.90;;;;;;4821128;29;20054;-80
2023/01/18 08:25:58;;;;;;;11.13;8.30;;;2.80;99.90;;;;;;4822064;29;20516;-80
2023/01/18 08:28:25;;;;;;;11.23;9.43;;;2.80;99.90;;;;;;4822604;29;20462;-80
2023/01/18 08:30:52;;;;;;;17.20;12.90;;;4.20;99.90;;;;;;4832823;29;20054;-80
2023/01/18 08:33:19;;;;;;;11.45;9.02;;;3.90;99.90;;;;;;4819395;29;20042;-82
2023/01/18 08:35:46;;;;;;;8.77;7.15;;;4.20;99.90;;;;;;4818658;29;20062;-78
2023/01/18 08:38:14;;;;;;;11.38;8.02;;;3.90;99.90;;;;;;4819969;29;20088;-78
2023/01/18 08:40:41;;;;;;;12.48;7.93;;;4.60;99.90;;;;;;4805806;29;20616;-79
2023/01/18 08:43:10;;;;;;;16.13;8.23;;;2.90;99.90;;;;;;4821852;29;20069;-79
2023/01/18 08:45:37;;;;;;;9.75;7.28;;;2.90;99.90;;;;;;4822975;29;20061;-78
2023/01/18 08:48:06;;;;;;;13.27;7.72;;;3.10;99.90;;;;;;4823244;29;20503;-79
2023/01/18 08:50:34;;;;;;;12.00;7.20;;;5.10;99.90;;;;;;4807361;29;20115;-78
2023/01/18 08:53:01;;;;;;;9.50;6.55;;;3.20;99.90;;;;;;4814442;29;20057;-80
2023/01/18 08:55:29;;;;;;;10.18;6.28;;;3.10;99.90;;;;;;4837817;29;20134;-79
2023/01/18 08:57:56;;;;;;;8.63;6.65;;;3.20;99.90;;;;;;4822851;29;20119;-79
2023/01/18 09:00:27;;;;;;;9.98;6.18;;;3.20;99.90;;;;;;4846903;29;20054;-80
2023/01/18 09:02:54;;;;;;;10.80;5.93;;;3.30;99.90;;;;;;4826090;29;20042;-79
2023/01/18 09:05:21;;;;;;;7.65;6.68;;;3.30;99.90;;;;;;4840271;29;20050;-80
2023/01/18 09:07:49;;;;;;;10.43;6.65;;;3.20;99.90;;;;;;4825591;29;20062;-80
2023/01/18 09:10:16;;;;;;;7.90;5.55;;;3.40;99.90;;;;;;4805352;29;20081;-80
2023/01/18 09:12:43;;;;;;;10.60;6.32;;;3.30;99.90;;;;;;4803936;29;20055;-82
2023/01/18 09:15:10;;;;;;;12.45;9.50;;;3.30;99.90;;;;;;4823807;29;20054;-79
2023/01/18 09:17:37;;;;;;;11.10;7.10;;;3.30;99.90;;;;;;4807044;29;20152;-79
2023/01/18 09:20:08;;;;;;;7.90;5.60;;;3.30;99.50;;;;;;4806480;29;20054;-80
2023/01/18 09:22:36;;;;;;;6.57;5.95;;;3.40;99.90;;;;;;4822286;29;20046;-80
2023/01/18 09:25:04;;;;;;;13.25;6.03;;;3.50;99.90;;;;;;4803947;29;20088;-81
2023/01/18 09:27:31;;;;;;;8.98;5.35;;;3.40;99.90;;;;;;4799834;29;20429;-81
2023/01/18 09:29:59;;;;;;;8.45;5.60;;;3.40;99.80;;;;;;4815307;29;20094;-81
2023/01/18 09:32:26;;;;;;;11.18;6.18;;;3.40;99.40;;;;;;4831787;29;20050;-83
2023/01/18 09:34:53;;;;;;;7.45;5.25;;;4.80;99.90;;;;;;4826545;29;20053;-81
2023/01/18 09:37:20;;;;;;;8.98;6.47;;;4.60;99.90;;;;;;4804886;29;20499;-80
2023/01/18 09:39:48;;;;;;;13.48;5.10;;;5.20;99.90;;;;;;4801924;29;20394;-79
2023/01/18 09:42:24;;;;;;;6.35;4.55;;;4.50;99.90;;;;;;4816415;29;20146;-79
2023/01/18 09:44:54;;;;;;;5.85;4.03;;;3.70;99.20;;;;;;4801768;29;20059;-79
2023/01/18 09:47:23;;;;;;;5.22;4.70;;;3.70;99.00;;;;;;4801409;29;20055;-79
2023/01/18 09:49:58;;;;;;;8.63;4.85;;;4.70;99.50;;;;;;4831568;29;20050;-79
2023/01/18 09:52:31;;;;;;;5.32;4.60;;;4.10;99.10;;;;;;4819772;29;20053;-79
2023/01/18 09:55:27;;;;;;;5.13;3.63;;;3.80;98.80;;;;;;4834153;29;20419;-79
2023/01/18 09:58:00;;;;;;;7.60;5.18;;;3.90;98.30;;;;;;4812588;29;20057;-79
2023/01/18 10:00:30;;;;;;;5.63;4.60;;;4.00;98.20;;;;;;4820315;29;20518;-80
2023/01/18 10:03:07;;;;;;;5.22;4.18;;;5.30;98.60;;;;;;4823204;29;20042;-80
2023/01/18 10:05:36;;;;;;;5.13;4.38;;;4.40;97.90;;;;;;4823521;29;20062;-80
2023/01/18 10:08:16;;;;;;;5.75;3.80;;;4.00;98.10;;;;;;4824198;29;20054;-80
2023/01/18 10:10:55;;;;;;;6.60;4.88;;;4.00;97.40;;;;;;4827780;29;20548;-80
2023/01/18 10:13:58;;;;;;;6.95;4.30;;;4.10;97.50;;;;;;4822849;29;20053;-81
2023/01/18 10:16:25;;;;;;;5.90;4.00;;;4.30;97.60;;;;;;4802048;29;20099;-81
2023/01/18 10:18:56;;;;;;;8.38;4.43;;;5.60;97.60;;;;;;4817999;29;20099;-82
2023/01/18 10:22:02;;;;;;;6.30;3.70;;;3.60;96.90;;;;;;4818228;29;20058;-82
2023/01/18 10:24:51;;;;;;;4.00;3.30;;;4.40;97.40;;;;;;4818747;29;20066;-82
2023/01/18 10:27:39;;;;;;;5.88;3.15;;;4.40;96.00;;;;;;4818779;29;20130;-81
2023/01/18 10:30:27;;;;;;;8.70;3.80;;;4.40;95.80;;;;;;4803323;29;20058;-82
2023/01/18 10:33:01;;;;;;;4.28;3.55;;;4.50;96.40;;;;;;4803299;29;20042;-83
2023/01/18 10:35:35;;;;;;;5.10;3.47;;;4.60;95.70;;;;;;4806133;29;20054;-80
2023/01/18 10:38:08;;;;;;;7.68;3.60;;;4.70;95.70;;;;;;4818631;29;20061;-78
2023/01/18 10:40:36;;;;;;;4.05;2.90;;;4.80;95.70;;;;;;4821160;29;20067;-77
2023/01/18 10:43:09;;;;;;;3.72;3.15;;;4.80;94.80;;;;;;4821772;29;20065;-77
2023/01/18 10:45:35;;;;;;;4.32;2.75;;;4.80;95.10;;;;;;4838817;29;20046;-77
2023/01/18 10:48:32;;;;;;;4.47;3.20;;;5.00;94.40;;;;;;4838587;29;20084;-78
2023/01/18 10:51:02;;;;;;;4.70;3.53;;;5.00;94.60;;;;;;4827565;29;20071;-78
2023/01/18 10:53:32;;;;;;;3.20;2.90;;;5.10;94.50;;;;;;4837041;29;20048;-77
2023/01/18 10:56:12;;;;;;;11.50;3.25;;;5.10;94.80;;;;;;4821302;29;20065;-78
2023/01/18 10:58:41;;;;;;;4.28;3.10;;;5.10;94.30;;;;;;4805143;29;20046;-78
2023/01/18 11:01:33;;;;;;;5.60;3.03;;;6.40;94.40;;;;;;4819414;29;20061;-78
2023/01/18 11:04:06;;;;;;;5.55;2.80;;;5.30;94.10;;;;;;4800886;29;20051;-76
2023/01/18 11:06:52;;;;;;;8.55;3.45;;;5.40;93.50;;;;;;4800086;29;20050;-76
2023/01/18 11:09:41;;;;;;;5.88;4.25;;;5.30;94.10;;;;;;4814452;29;20564;-75
2023/01/18 11:12:32;;;;;;;7.60;4.15;;;5.40;93.70;;;;;;4807213;29;20400;-78
2023/01/18 11:15:14;;;;;;;6.65;3.67;;;5.40;93.00;;;;;;4836142;29;20131;-78
2023/01/18 11:17:59;;;;;;;7.22;3.80;;;5.40;93.50;;;;;;4831908;29;20053;-78
2023/01/18 11:20:46;;;;;;;4.28;3.22;;;5.50;92.80;;;;;;4835535;29;20057;-78
2023/01/18 11:23:17;;;;;;;6.00;4.65;;;6.80;93.40;;;;;;4836600;29;20125;-78
2023/01/18 11:26:18;;;;;;;7.03;4.45;;;5.50;92.90;;;;;;4824173;29;20052;-78
2023/01/18 11:28:46;;;;;;;;;;;5.50;92.30;;;;;;4790715;29;20054;-80
2023/01/18 11:31:16;;;;;;;7.90;3.28;;;5.50;92.00;;;;;;4816183;29;20028;-79
2023/01/18 11:33:52;;;;;;;6.35;3.28;;;5.60;92.70;;;;;;4816161;29;20062;-79
2023/01/18 11:36:32;;;;;;;4.00;3.13;;;5.70;92.50;;;;;;4819886;29;20054;-79
2023/01/18 11:39:21;;;;;;;4.97;3.13;;;5.90;92.50;;;;;;4835937;29;20057;-80
2023/01/18 11:41:48;;;;;;;7.35;3.40;;;5.80;91.60;;;;;;4820579;29;20054;-79
2023/01/18 11:44:22;;;;;;;7.45;3.72;;;5.80;91.90;;;;;;4819184;29;20087;-78
2023/01/18 11:46:52;;;;;;;4.72;3.20;;;5.90;91.80;;;;;;4806111;29;20724;-79
2023/01/18 11:49:30;;;;;;;6.55;3.00;;;6.00;92.20;;;;;;4808478;29;20606;-79
2023/01/18 11:52:04;;;;;;;8.50;3.45;;;6.00;90.90;;;;;;4844291;29;20046;-78
2023/01/18 11:54:47;;;;;;;3.42;2.80;;;6.10;91.20;;;;;;4837475;29;20161;-78
2023/01/18 11:57:14;;;;;;;3.90;2.75;;;6.10;91.30;;;;;;4822209;29;20141;-78
2023/01/18 11:59:45;;;;;;;8.15;3.45;;;6.10;90.40;;;;;;4837272;29;20094;-78
2023/01/18 12:02:37;;;;;;;4.43;2.70;;;6.00;90.90;;;;;;4821017;29;20061;-78
2023/01/18 12:05:25;;;;;;;9.52;4.60;;;6.00;91.80;;;;;;4822737;29;20050;-78
2023/01/18 12:07:55;;;;;;;5.90;3.20;;;6.00;90.80;;;;;;4822345;29;20065;-78
2023/01/18 12:10:25;;;;;;;9.98;3.45;;;6.00;90.40;;;;;;4830129;29;20119;-79
2023/01/18 12:13:03;;;;;;;8.63;3.03;;;5.90;90.60;;;;;;4824015;29;20061;-78
2023/01/18 12:15:48;;;;;;;6.22;2.85;;;5.90;90.90;;;;;;4837422;29;20046;-79
2023/01/18 12:18:33;;;;;;;6.50;4.28;;;5.80;90.10;;;;;;4822522;29;20058;-76
2023/01/18 12:21:10;;;;;;;7.97;3.28;;;5.90;90.60;;;;;;4821492;29;20051;-77
2023/01/18 12:23:47;;;;;;;4.53;2.60;;;5.90;90.70;;;;;;4836420;29;20057;-76
2023/01/18 12:26:19;;;;;;;6.43;3.50;;;6.00;90.10;;;;;;4820177;29;20054;-77
2023/01/18 12:29:11;;;;;;;6.53;3.22;;;6.00;90.30;;;;;;4821798;29;20050;-76
2023/01/18 12:31:50;;;;;;;7.80;4.20;;;5.90;87.70;;;;;;4819915;29;20060;-76
2023/01/18 12:34:22;;;;;;;4.70;2.93;;;5.90;87.50;;;;;;4821355;29;20047;-76
2023/01/18 12:37:06;;;;;;;5.03;2.85;;;5.90;86.80;;;;;;4836660;29;20058;-77
2023/01/18 12:39:52;;;;;;;5.22;3.10;;;6.10;85.20;;;;;;4809514;29;20054;-76
2023/01/18 12:43:00;;;;;;;7.18;3.67;;;6.10;88.10;;;;;;4820969;29;20061;-76
2023/01/18 12:45:38;;;;;;;7.25;2.95;;;6.20;84.40;;;;;;4794362;29;20115;-76
2023/01/18 12:48:20;;;;;;;6.53;4.32;;;6.10;85.60;;;;;;4805114;29;20050;-76
2023/01/18 12:50:48;;;;;;;5.93;3.47;;;6.20;85.60;;;;;;4820632;29;20058;-79
2023/01/18 12:53:27;;;;;;;4.82;2.90;;;6.30;87.70;;;;;;4821640;29;20129;-77
2023/01/18 12:55:54;;;;;;;6.60;2.90;;;6.40;84.00;;;;;;4819951;29;20050;-77
2023/01/18 12:58:23;;;;;;;5.15;2.88;;;6.60;83.80;;;;;;4819012;29;20042;-79
2023/01/18 13:00:58;;;;;;;7.32;2.72;;;6.70;84.30;;;;;;4803079;29;20051;-78
2023/01/18 13:03:29;;;;;;;7.97;4.78;;;6.70;83.90;;;;;;4815808;29;20046;-79
2023/01/18 13:06:00;;;;;;;6.47;3.63;;;7.70;84.40;;;;;;4822581;29;20131;-79
2023/01/18 13:08:51;;;;;;;8.88;3.38;;;6.80;84.20;;;;;;4840709;29;20053;-78
2023/01/18 13:11:23;;;;;;;6.10;3.63;;;6.90;87.30;;;;;;4817945;29;20564;-78
2023/01/18 13:14:01;;;;;;;7.85;3.88;;;6.80;82.00;;;;;;4809837;29;20054;-78
2023/01/18 13:16:49;;;;;;;10.85;4.47;;;6.60;82.80;;;;;;4803480;29;20081;-78
2023/01/18 13:19:21;;;;;;;8.90;4.57;;;7.50;85.40;;;;;;4816560;29;20457;-77
2023/01/18 13:22:21;;;;;;;6.25;4.13;;;6.60;82.50;;;;;;4819386;29;20038;-78
2023/01/18 13:24:54;;;;;;;7.75;3.58;;;6.90;84.00;;;;;;4838526;29;20046;-79
2023/01/18 13:27:21;;;;;;;7.93;3.90;;;7.00;80.90;;;;;;4845504;29;20069;-76
2023/01/18 13:29:48;;;;;;;10.05;4.65;;;7.50;82.70;;;;;;4819263;29;20500;-77
2023/01/18 13:32:33;;;;;;;11.60;5.30;;;8.30;83.70;;;;;;4817199;29;20511;-77
2023/01/18 13:35:04;;;;;;;5.63;4.15;;;9.00;80.10;;;;;;4837056;29;20080;-77
2023/01/18 13:37:53;;;;;;;6.80;4.63;;;9.50;77.20;;;;;;4824151;29;20095;-77
2023/01/18 13:40:51;;;;;;;4.80;3.65;;;10.00;74.50;;;;;;4836468;29;20054;-77
2023/01/18 13:43:36;;;;;;;5.28;3.20;;;10.70;70.40;;;;;;4817883;29;20051;-78
2023/01/18 13:46:06;;;;;;;6.45;3.17;;;11.00;67.10;;;;;;4808521;29;20106;-78
2023/01/18 13:48:54;;;;;;;5.38;3.47;;;11.00;64.90;;;;;;4820015;29;20610;-78